Aviation Digital Data Service (ADDS)

Output produced by METARs form (0241 UTC 24 July 2017)
found at http://www.aviationweather.gov/adds/metars/
 
TAF EDAC 231700Z 2318/2403 26005KT CAVOK
       
EDMA 240220Z AUTO 10001KT 9999 // OVC054/// 15/14 Q1013
TAF EDMA 231700Z 2318/2403 30005KT CAVOK 
     BECMG 2321/2323 14003KT
       
EDDW 240220Z VRB02KT CAVOK 12/11 Q1010
TAF EDDW 232300Z 2400/2424 VRB03KT 9999 FEW020 
     TEMPO 2405/2413 04007KT SHRA BKN014CB 
     TEMPO 2413/2424 01007KT 4000 RA BKN008 SCT020CB
       
ETSB 240220Z AUTO 22003KT 6000 // ////// 12/11 Q1011 ///
ETHB 240220Z 18004KT 9999 SCT094 BKN120 15/12 Q1010 BLU
ETHC 240220Z 23002KT 9999 SCT120 BKN260 14/10 Q1011 BLU+
TAF EDLW 231700Z 2318/2418 23008KT 9999 SCT035 
     BECMG 2318/2322 17005KT 
     TEMPO 2404/2411 3500 RA BKN014 
     BECMG 2410/2412 30006KT 
     TEMPO 2412/2418 SHRA BKN020CB 
     PROB30 
     TEMPO 2415/2418 TSRA
       
EDDC 240220Z 23004KT CAVOK 15/09 Q1013
TAF EDDC 232300Z 2400/2424 21005KT CAVOK 
     BECMG 2406/2409 09007KT 
     BECMG 2417/2420 30005KT RA 
     BECMG 2418/2421 BKN009 
     TEMPO 2420/2424 4000 RA BR BKN004
       
EDDL 240220Z 19007KT 9999 -RA BKN026 BKN110 16/12 Q1010 NOSIG
TAF EDDL 232300Z 2400/2506 17008KT 9999 SCT035 
     TEMPO 2403/2409 RA 
     PROB30 
     TEMPO 2406/2410 BKN012 
     BECMG 2408/2412 31005KT 
     TEMPO 2409/2418 SHRA BKN020CB 
     PROB30 
     TEMPO 2413/2416 TSRA 
     BECMG 2422/2501 RA BKN008
       
EDDE 240220Z 19007KT CAVOK 14/09 Q1012
TAF EDDE 232300Z 2400/2424 20007KT CAVOK 
     BECMG 2406/2409 12005KT 
     TEMPO 2412/2424 RA 
     BECMG 2414/2417 30005KT BKN012 
     PROB30 
     TEMPO 2417/2424 BKN009
       
ETHS 240220Z 09003KT 9999 MIFG BKN100 SCT250 11/10 Q1011 BLU
EDFH 240220Z VRB01KT 9999 -RA SCT035 11/11 Q1011
TAF EDFH 232300Z 2400/2424 20005KT CAVOK 
     BECMG 2400/2402 13005KT 
     TEMPO 2401/2408 RA 
     PROB40 
     TEMPO 2403/2408 2500 -RADZ BKN004 
     BECMG 2406/2408 30008KT 
     TEMPO 2410/2424 SHRA BKN012 BKN015TCU 
     PROB30 
     TEMPO 2410/2418 28015G25KT TSRA BKN008 BKN015CB
       
EDDF 240220Z 21006KT CAVOK 16/12 Q1011 NOSIG
TAF EDDF 232300Z 2400/2506 18005KT CAVOK 
     BECMG 2400/2403 10005KT 
     TEMPO 2403/2410 RA BKN030 
     PROB30 
     TEMPO 2406/2410 4000 -RADZ BKN010 
     BECMG 2410/2412 28010KT 
     TEMPO 2412/2506 SHRA SCT015 BKN025TCU 
     PROB30 
     TEMPO 2412/2418 28015G25KT TSRA BKN025CB
       
EDNY 240220Z AUTO 04002KT 9999 SCT043 BKN064 OVC140 16/16 Q1013
TAF EDNY 232300Z 2400/2424 VRB02KT 9999 SCT040 
     TEMPO 2407/2412 RA BKN014 
     BECMG 2407/2409 25010KT 
     TEMPO 2411/2417 27015G30KT 
     PROB40 
     TEMPO 2415/2424 SHRA BKN020CB
       
ETHF 240220Z VRB01KT 9999 FEW070 BKN100 13/11 Q1011 BLU
ETNG 240150Z 22004KT 9999 FEW040 BKN060 OVC080 16/12 Q1011
TAF ETNG 240200Z 2403/2418 22006KT 9999 SCT030 BKN060 
     TEMPO 2403/2409 6000 -RA BKN035 
     PROB40 
     TEMPO 2403/2408 4000 RA BKN012 
     BECMG 2407/2409 25007KT BKN025 
     TEMPO 2409/2418 4000 SHRA BKN020CB 
     PROB40 
     TEMPO 2409/2418 3000 SHRA TSRA 
     BECMG 2416/2418 33006KT
       
ETIC 240158Z AUTO 00000KT 9999 CLR 10/09 A2993 RMK AO2 SLP130 T00960088
TAF ETIC 232204Z 2322/2504 27009KT 9999 SCT050 QNH2974INS 
     BECMG 2411/2412 20015G20KT 8000 -SHRA BKN040 QNH2972INS 
     BECMG 2419/2420 21009KT 8000 -RA OVC020 610909 QNH2977INS 
     TEMPO 2419/2424 21012G18KT 9999 OVC010 TX20/2414Z TN11/2404Z
       
EDDH 240220Z VRB02KT CAVOK 13/13 Q1010 NOSIG
TAF EDDH 232300Z 2400/2506 VRB03KT CAVOK 
     BECMG 2409/2411 07006KT 
     PROB30 
     TEMPO 2409/2415 SHRA BKN014CB 
     TEMPO 2415/2506 RA BKN012 SCT020CB 
     BECMG 2420/2422 01006KT 
     PROB40 
     TEMPO 2502/2506 3500 RA BKN007
       
EDDV 240229Z 07005KT CAVOK 14/12 Q1011
TAF EDDV 232300Z 2400/2424 VRB03KT CAVOK 
     TEMPO 2405/2412 12007KT SHRA BKN014CB 
     TEMPO 2412/2418 4500 RA BKN009 SCT015CB
       
TAF EDAH 231700Z 2318/2403 24004KT 9999 FEW030 
     TEMPO 2322/2403 2000 BR
       
ETIH 240158Z AUTO 00000KT 9999 CLR 11/10 A2995 RMK AO2 SLP134
ETNH 240220Z 16003KT 9999 FEW080 12/11 Q1010 BLU+
TAF ETNH 232200Z 2323/2411 20005KT 9999 NSW SCT020 SCT080 
     BECMG 2400/2402 18002KT 4000 BR BKN020 BKN080 
     TEMPO 2403/2407 15002KT 0500 FG FEW020 FEW080 BY ETGL
       
ETSH 240220Z 12002KT 9999 FEW090 11/09 Q1012 BLU+
ETSI 240220Z AUTO 08003KT 7000 // ////// 16/14 Q1013 ///
EDSB 232150Z 19002KT CAVOK 18/12 Q1015
TAF EDSB 231700Z 2318/2418 25008KT 9999 SCT045 
     BECMG 2318/2319 19003KT 
     TEMPO 2403/2410 RA 
     BECMG 2405/2407 22010KT 
     PROB30 
     TEMPO 2405/2410 4000 -RADZ SCT009 BKN014 
     TEMPO 2410/2418 27015G25KT SHRA SCT030TCU 
     PROB30 
     TEMPO 2412/2418 TSRA SCT030CB
       
EDVK 240220Z 10003KT CAVOK 13/11 Q1011
EDDK 240229Z 18005KT 110V260 9999 RA SCT048 BKN070 14/13 Q1010 TEMPO NSW
TAF EDDK 232300Z 2400/2506 13004KT 9999 SCT035 
     TEMPO 2403/2409 RA 
     PROB30 
     TEMPO 2405/2408 BKN010 
     BECMG 2409/2412 31006KT 
     TEMPO 2409/2418 SHRA BKN020CB 
     PROB30 
     TEMPO 2413/2416 TSRA 
     BECMG 2500/2503 RA BKN009
       
ETNL 240220Z 30001KT 0050 R27/8000U FG FEW080 SCT240 12/12 Q1011 RED
TAF ETNL 232200Z 2323/2411 VRB03KT 8000 MIFG BKN100 
     BECMG 2323/2401 VRB01KT 3000 MIFG SCT100 
     TEMPO 2400/2405 VRB01KT 0400 FG VV001 
     BECMG 2406/2408 09005KT 8000 NSW SCT040 BKN120 BY ETGL
       
ETSA 240220Z 14004KT 9999 BKN050 BKN150 15/14 Q1013 BLU
TAF ETSA 232200Z 2323/2411 18008KT 9999 NSW SCT040 BKN090 
     TEMPO 2323/2406 20005KT 4000 SHRA BKN030 BKN080 
     BECMG 2408/2410 26010KT 6000 -RA BKN015 BKN050 
     TEMPO 2410/2411 27012KT 3000 RA BKN008 BKN030 BY ETGL
       
ETHL 240220Z 12002KT 9999 BKN048 16/12 Q1013 BLU
ETSL 240220Z 15002KT 9999 SCT040 BKN060 15/14 Q1013 BLU
EDDP 240220Z 15003KT 100V200 CAVOK 13/10 Q1012 NOSIG
TAF EDDP 232300Z 2400/2424 21005KT CAVOK 
     BECMG 2403/2406 15005KT 
     BECMG 2412/2415 30005KT 
     TEMPO 2415/2424 RA 
     BECMG 2417/2420 BKN012 
     PROB40 
     TEMPO 2420/2424 BKN009
       
TAF EDLN 231700Z 2318/2403 24007KT 9999 SCT045
       
EDDM 240220Z 12006KT 9999 -SHRA FEW038TCU BKN060 OVC090 16/15 Q1013 NOSIG
TAF COR EDDM 232345Z 2400/2506 16003KT 9999 SCT040 
     PROB30 
     TEMPO 2400/2408 4000 SHRA BKN030TCU 
     BECMG 2409/2411 26012KT 
     PROB40 
     TEMPO 2410/2412 30015G30KT 4000 TSRA SCT020 BKN030CB 
     TEMPO 2412/2416 30015G25KT RA BKN012 
     BECMG 2417/2420 25007KT 
     TEMPO 2503/2506 BKN010
       
EDDG 240220Z VRB02KT 9999 SCT023 BKN060 14/13 Q1010 NOSIG
TAF EDDG 232300Z 2400/2424 VRB03KT 9999 SCT040 
     TEMPO 2406/2412 RA BKN013 
     BECMG 2410/2413 36005KT 
     PROB30 
     TEMPO 2412/2417 RA 
     BECMG 2417/2419 RA 
     BECMG 2419/2422 30005KT 
     BECMG 2422/2424 BKN008
       
ETSN 240220Z 01002KT 9999 BKN060 15/13 Q1013 BLU
TAF ETSN 240100Z 2402/2411 VRB02KT 9999 NSW FEW040 BKN100 
     BECMG 2408/2410 18005KT 8000 -RA SCT020 BKN040 BY ETGL
       
ETHN 240220Z 13003KT 9999 FEW070 BKN090 14/10 Q1012 BLU
ETMN 240220Z 09003KT 9999 MIFG FEW140 BKN190 11/10 Q1010 BLU
ETNN 240220Z 20004KT 8000 RA SCT040 BKN080 14/12 Q1010 BLU
EDDN 240220Z 11005KT CAVOK 12/11 Q1013
TAF EDDN 232300Z 2400/2424 10003KT 9999 SCT040 
     BECMG 2407/2409 20007KT 
     TEMPO 2409/2414 RA BKN012 
     BECMG 2412/2414 27012KT 
     PROB30 
     TEMPO 2415/2418 28015G30KT SHRA BKN030TCU 
     BECMG 2417/2420 25006KT
       
EDLP 240220Z 14003KT 050V190 CAVOK 15/09 Q1011
TAF EDLP 232300Z 2400/2424 16005KT 9999 SCT035 
     BECMG 2405/2408 RA 
     BECMG 2408/2410 3000 BKN010 
     BECMG 2410/2413 30006KT 
     TEMPO 2412/2424 2000 +RA BKN005 
     BECMG 2421/2424 BKN003
       
ETAR 240230Z 06003KT 8000 -RA BR FEW005 SCT016 OVC025 14/14 A2986 RMK AO2A SLP107 $
TAF ETAR 240202Z 2402/2508 18009KT 8000 -SHRA BR BKN040 610809 QNH2980INS 
     BECMG 2403/2404 VRB06KT 8000 -SHRA SCT010 BKN020 610809 QNH2975INS 
     BECMG 2405/2406 VRB06KT 8000 -SHRA BKN010 610809 QNH2976INS 
     TEMPO 2406/2408 BKN008 
     BECMG 2409/2410 27012G20KT 8000 -SHRA VCTS SCT010 BKN025CB 610809 QNH2978INS 
     BECMG 2412/2413 28012KT 9999 NSW FEW030 BKN120 QNH2979INS 
     BECMG 2504/2505 28012G18KT 8000 -SHRA BKN020 BKN100 610809 QNH2977INS TX21/2415Z TN12/2406Z
       
ETHE 240220Z AUTO 13002KT //// // ////// 14/13 Q1010 ///
EDDR 240220Z 10004KT 9000 RA FEW007 SCT013 OVC030 14/13 Q1010
TAF EDDR 232300Z 2400/2424 20005KT CAVOK 
     BECMG 2400/2402 10005KT 
     TEMPO 2400/2409 RA 
     PROB40 
     TEMPO 2404/2409 4000 -RADZ BKN005 
     BECMG 2406/2408 26010KT 
     TEMPO 2411/2424 SHRA SCT012 BKN020TCU 
     PROB30 
     TEMPO 2411/2418 28015G25KT TSRA BKN010 BKN015CB
       
ETNS 240220Z AUTO 05003KT //// // ////// 12/11 Q1010 ///
EDDB 240220Z 25003KT CAVOK 15/14 Q1011 NOSIG
TAF EDDB 232300Z 2400/2424 VRB03KT CAVOK 
     BECMG 2403/2406 12005KT 
     BECMG 2411/2414 05007KT 
     BECMG 2421/2424 RA
       
TAF EDTY 231700Z 2318/2403 26005KT CAVOK 
     BECMG 2321/2323 VRB02KT 
     BECMG 2402/2403 RA
       
TAF EDGS 231700Z 2318/2403 24008KT 9999 SCT035
       
ETAD 240228Z AUTO 00000KT 9999 -RA SCT022 OVC036 12/11 A2985 RMK AO2 SLP092 TSNO $
TAF ETAD 231901Z 2319/2501 24011KT 9999 SCT040 SCT080 QNH2990INS 
     BECMG 2323/2324 23009KT 8000 -SHRA SCT010 BKN020 610809 611701 QNH2982INS 
     BECMG 2402/2403 20009KT 5000 -SHRA BR BKN005 BKN010 610809 611701 QNH2976INS 
     BECMG 2407/2408 28012KT 8000 -SHRA SCT005 BKN010 610809 611701 QNH2975INS 
     BECMG 2411/2412 28010G20KT 8000 -SHRA FEW010 BKN025 610809 611701 QNH2978INS 
     BECMG 2417/2418 27009KT 8000 -SHRA SCT010 BKN020 610809 611701 QNH2981INS TX21/2415Z TN12/2406Z LAST NO AMDS AFT 2319 NEXT 2403
       
EDDS 240220Z 10003KT CAVOK 13/12 Q1012
TAF EDDS 232300Z 2400/2424 VRB03KT CAVOK 
     TEMPO 2406/2411 RA 
     BECMG 2408/2411 25012KT 
     TEMPO 2411/2420 28015G25KT 
     TEMPO 2414/2424 SHRA SCT030TCU 
     PROB30 
     TEMPO 2414/2420 TSRA SCT030CB
       
EDDT 240220Z 23002KT CAVOK 16/14 Q1011
TAF EDDT 232300Z 2400/2424 VRB03KT CAVOK 
     BECMG 2403/2406 12005KT 
     BECMG 2411/2414 05007KT 
     BECMG 2421/2424 RA
       
ETOU 240217Z AUTO 20007KT 9999 -RA BKN050 OVC065 16/12 A2986 RMK AO2 RAB17 SLP110
TAF ETOU 231901Z 2319/2501 27009KT 9999 SCT090 OVC170 QNH2990INS 
     BECMG 2323/2324 20009KT 8000 -SHRA BKN025 OVC060 610809 611701 QNH2977INS 
     BECMG 2405/2406 18009KT 6000 -SHRA BR BKN010 610809 611701 QNH2972INS 
     BECMG 2408/2409 17012KT 8000 -SHRA BKN007 610809 611701 QNH2972INS 
     BECMG 2413/2414 16010G20KT 8000 -SHRA SCT020 BKN060 610809 611701 QNH2975INS 
     BECMG 2417/2418 26009KT 8000 -SHRA SCT040 BKN080 610809 611701 QNH2976INS TX24/2416Z TN15/2406Z
       
ETNT 240220Z AUTO ///02 2600 // ////// 13/// Q1010 ///
ETNW 240220Z AUTO 10004KT //// // ////// 14/12 Q1010 ///
TAF ETNW 231600Z 2317/2417 22012KT 9999 NSW SCT030 
     TEMPO 2317/2322 27012G22 5000 SHRA SCT020 BKN030 
     BECMG 2406/2409 11005KT 7000 -RA SCT015 BKN040 
     TEMPO 2412/2417 18012G22KT 3000 SHRA SCT015 BKN025CB BY ETGL